Wilbur, WA

6:09 PM PDT on August 01, 2014 (GMT -0700)
3 miles ESE of Grand Coulee Dam, in Lincoln County, WA (KWAGRAND5) Elev 1575 ft | 47.92 °N, 118.94 °W | Change Station

Current weather conditions updated 8 minutes ago

Clear
Clear
94.0 °F
Feels Like 90 °F
N
1.0
Wind Variable Wind from ENE
Gusts 6.0 mph

Tomorrow is forecast to be Warmer than today.

Today
High -- | Low -- °F
--% Chance of Precip.
Yesterday
High -- | Low -- °F
Precip. -- in
5:31 AM 8:29 PM
Waxing Crescent, 31% visible
Pressure 29.86 in
Visibility 10.0 miles
Clouds Clear
Heat Index 90 °F
Dew Point 38 °F
Humidity 14%
Rainfall 0.00 in
Snow Depth Not available.
UV 2 out of 12
Pollen 6.50 out of 12
Air Quality Not available.
Flu Activity Not available.
METAR KMWH 020052Z 21006KT 10SM CLR 37/06 A2988 RMK AO2 SLP110 T03720061

More Conditions Fewer Conditions

Pressure 29.86 in
Visibility 10.0 miles
Clouds Clear
Heat Index 90 °F
Dew Point 38 °F
Humidity 14%
Rainfall 0.00 in
Snow Depth Not available.
UV 2 out of 12
Pollen 6.50 out of 12
Air Quality Not available.
Flu Activity Not available.
METAR KMWH 020052Z 21006KT 10SM CLR 37/06 A2988 RMK AO2 SLP110 T03720061

More Conditions Fewer Conditions

10-Day Weather Forecast

Almanac

Astronomy

Aug. 01, 2014 Rise Set
Actual Time 5:31 AM PDT 8:29 PM PDT
Civil Twilight 4:55 AM PDT 9:05 PM PDT
Nautical Twilight 4:09 AM PDT 9:51 PM PDT
Astronomical Twilight 3:12 AM PDT 10:47 PM PDT
Moon 11:28 AM PDT (8/1) 10:47 PM PDT (8/1)
Length of Visible Light 16h 09m
Length of Day
14h 57m
Tomorrow will be 2m 42s shorter.
Waxing Crescent, 31% of the Moon is Illuminated
Today
Waxing Crescent
Aug 3
First Quarter
Aug 10
Full
Aug 17
Last Quarter
Aug 25
New

Today's Extremes

State Highs State Lows

Community

WunderPhotos

Upload Photos

1,739,780 photos uploaded!

Nearby

Snow Depth

Station Depth Elevation
Moses Mountain 1 in 5300 ft
Quartz Peak 0 in 4700 ft
Sentinel Butte 0 in 4920 ft
Trough 0 in 5300 ft
Grouse Camp 0 in 5380 ft

Earthquake Activity

City Distance Mag. Time & Date
No recent earthquake activity has been reported nearby.
Minimum magnitude displayed is 2.5.

Coastal Water Temperatures

Place Temperature
No Stations Reporting

Nearby Weather Stations

Station Location Temp. Heat Index Dew Point Humidity Wind Precip. Elev Updated Type
3 miles ESE of Grand Coulee Dam, in Linc, Grand Coulee, WA 94.0 °F 90 °F 38 °F 14% ENE  at  1.0 mph 0.00 in / hr 1575 ft 6:00 PM PDT Normal
RAWS SPRING CANYON WA, Coulee Dam, WA 93 °F 89 °F 42 °F 17% South  at  11 mph 0.00 in / hr 1339 ft 4:37 PM PDT MADIS
Seven Bays, Seven Bays, WA 88.9 °F 88 °F 58 °F 35% North  at  0.0 mph 0.00 in / hr 1332 ft 6:06 PM PDT Rapid Fire

Show More Stations Show Fewer Stations